Time;durP1;ratioP1;P1;durP2;ratioP2;P2;SDS_P1;SDS_P2;PMS_P1;PMS_P2;Temp;Humidity;BMP_temperature;BMP_pressure;BME280_temperature;BME280_humidity;BME280_pressure;Samples;Min_cycle;Max_cycle;Signal;HPM_P1;HPM_P2
2022/08/19 00:02:05;;;;;;;5.88;5.30;;;17.50;99.90;;;;;;5077955;28;20024;-79
2022/08/19 00:04:35;;;;;;;4.55;4.18;;;17.60;99.90;;;;;;5085817;28;20024;-79
2022/08/19 00:07:04;;;;;;;6.07;5.57;;;17.60;99.90;;;;;;5079447;28;20121;-79
2022/08/19 00:09:29;;;;;;;5.93;5.45;;;17.60;99.90;;;;;;5067571;28;20028;-79
2022/08/19 00:11:57;;;;;;;6.53;6.03;;;17.60;99.90;;;;;;5087386;28;20438;-79
2022/08/19 00:14:24;;;;;;;6.72;6.13;;;17.50;99.90;;;;;;5087406;28;20031;-79
2022/08/19 00:16:54;;;;;;;6.75;6.18;;;17.40;99.90;;;;;;5079388;28;20028;-79
2022/08/19 00:19:20;;;;;;;6.57;6.07;;;17.40;99.90;;;;;;5087305;28;20427;-80
2022/08/19 00:21:46;;;;;;;5.85;5.35;;;17.30;99.90;;;;;;5065622;28;20032;-78
2022/08/19 00:24:14;;;;;;;6.35;5.50;;;17.30;99.90;;;;;;5070159;28;20086;-79
2022/08/19 00:26:41;;;;;;;6.15;5.60;;;17.40;99.90;;;;;;5088221;28;20043;-79
2022/08/19 00:29:09;;;;;;;6.15;5.53;;;17.40;99.90;;;;;;5076345;28;20024;-79
2022/08/19 00:31:35;;;;;;;6.30;5.70;;;17.40;99.90;;;;;;5083547;28;20040;-79
2022/08/19 00:34:02;;;;;;;6.25;5.68;;;17.40;99.90;;;;;;5080358;28;20016;-79
2022/08/19 00:36:28;;;;;;;6.45;5.85;;;17.40;99.90;;;;;;5076549;28;20043;-79
2022/08/19 00:38:54;;;;;;;5.72;5.22;;;17.30;99.90;;;;;;5078666;28;20012;-79
2022/08/19 00:41:22;;;;;;;5.60;5.10;;;17.30;99.90;;;;;;5064751;28;20037;-79
2022/08/19 00:44:12;;;;;;;4.53;4.13;;;17.40;99.90;;;;;;5069066;28;20547;-78
2022/08/19 00:46:41;;;;;;;4.68;4.25;;;17.30;99.90;;;;;;5082317;28;20158;-79
2022/08/19 00:49:14;;;;;;;5.65;4.95;;;17.20;99.90;;;;;;5069729;28;20027;-79
2022/08/19 00:51:42;;;;;;;6.30;5.28;;;17.10;99.90;;;;;;5076757;28;20044;-79
2022/08/19 00:54:08;;;;;;;5.28;4.78;;;17.10;99.90;;;;;;5086242;28;20252;-79
2022/08/19 00:56:35;;;;;;;5.93;5.35;;;17.00;99.90;;;;;;5064409;28;20078;-79
2022/08/19 00:59:02;;;;;;;5.10;4.60;;;17.10;99.90;;;;;;5076979;28;20099;-78
2022/08/19 01:01:28;;;;;;;5.82;5.22;;;17.10;99.90;;;;;;5082938;28;20186;-77
2022/08/19 01:03:54;;;;;;;5.20;4.68;;;17.00;99.90;;;;;;5080342;28;20016;-78
2022/08/19 01:06:20;;;;;;;5.40;4.95;;;17.10;99.90;;;;;;5075667;28;20496;-79
2022/08/19 01:08:46;;;;;;;6.45;5.75;;;17.10;99.90;;;;;;5069027;28;20186;-78
2022/08/19 01:11:12;;;;;;;5.40;4.95;;;17.10;99.90;;;;;;5086504;28;20210;-79
2022/08/19 01:13:38;;;;;;;5.10;4.60;;;17.10;99.90;;;;;;5077377;28;20028;-78
2022/08/19 01:16:08;;;;;;;4.43;4.07;;;17.10;99.90;;;;;;5075877;28;20069;-79
2022/08/19 01:18:38;;;;;;;;;;;17.10;99.90;;;;;;5076830;28;20373;-78
2022/08/19 01:21:10;;;;;;;4.55;4.15;;;17.20;99.90;;;;;;5076743;28;19918;-79
2022/08/19 01:23:45;;;;;;;5.30;4.75;;;17.20;99.90;;;;;;5064970;28;20024;-79
2022/08/19 01:26:16;;;;;;;6.13;5.63;;;17.20;99.90;;;;;;5075493;28;20107;-78
2022/08/19 01:28:44;;;;;;;5.13;4.63;;;17.10;99.90;;;;;;5074950;28;20035;-79
2022/08/19 01:31:14;;;;;;;4.93;4.47;;;17.00;99.90;;;;;;5083342;28;20522;-79
2022/08/19 01:33:39;;;;;;;5.68;4.78;;;16.90;99.90;;;;;;5076358;28;20031;-78
2022/08/19 01:36:13;;;;;;;5.60;5.10;;;16.90;99.90;;;;;;5057765;28;20451;-78
2022/08/19 01:38:42;;;;;;;5.60;5.18;;;16.80;99.90;;;;;;5077728;28;20353;-79
2022/08/19 01:41:09;;;;;;;5.40;4.90;;;16.80;99.90;;;;;;5078291;28;20059;-78
2022/08/19 01:43:35;;;;;;;5.03;4.60;;;16.90;99.90;;;;;;5077257;28;20160;-79
2022/08/19 01:46:01;;;;;;;6.00;5.40;;;16.90;99.90;;;;;;5082169;28;20043;-79
2022/08/19 01:48:32;;;;;;;6.18;5.63;;;16.80;99.90;;;;;;5076361;28;20031;-79
2022/08/19 01:50:57;;;;;;;5.78;5.20;;;16.80;99.90;;;;;;5078428;28;20407;-79
2022/08/19 01:53:23;;;;;;;6.90;6.03;;;16.80;99.90;;;;;;5082966;28;20020;-79
2022/08/19 01:55:48;;;;;;;5.18;4.78;;;16.70;99.90;;;;;;5073942;28;20036;-78
2022/08/19 01:58:22;;;;;;;5.18;4.40;;;16.60;99.90;;;;;;5074405;28;20098;-79
2022/08/19 02:00:48;;;;;;;4.93;4.43;;;16.70;99.90;;;;;;5075802;28;20492;-79
2022/08/19 02:03:15;;;;;;;5.70;5.25;;;16.70;99.90;;;;;;5079128;28;20024;-79
2022/08/19 02:05:42;;;;;;;6.22;5.72;;;16.70;99.90;;;;;;5079813;28;20036;-79
2022/08/19 02:08:08;;;;;;;6.07;5.60;;;16.80;99.90;;;;;;5063950;28;20076;-79
2022/08/19 02:10:40;;;;;;;6.30;5.80;;;16.80;99.90;;;;;;5083832;28;20032;-79
2022/08/19 02:13:06;;;;;;;5.55;4.95;;;16.80;99.90;;;;;;5073820;28;20024;-80
2022/08/19 02:15:32;;;;;;;5.75;5.25;;;16.80;99.90;;;;;;5065282;28;20024;-79
2022/08/19 02:17:58;;;;;;;5.40;4.90;;;16.60;99.90;;;;;;5077041;28;20063;-79
2022/08/19 02:20:23;;;;;;;7.05;6.45;;;16.60;99.90;;;;;;5083064;28;20025;-79
2022/08/19 02:22:49;;;;;;;6.53;5.93;;;16.50;99.90;;;;;;5078271;28;20093;-79
2022/08/19 02:25:15;;;;;;;5.78;5.28;;;16.50;99.90;;;;;;5061660;28;20028;-79
2022/08/19 02:27:42;;;;;;;6.50;5.95;;;16.50;99.90;;;;;;5079816;28;20374;-80
2022/08/19 02:30:13;;;;;;;6.30;5.70;;;16.50;99.90;;;;;;5079869;28;20119;-79
2022/08/19 02:32:39;;;;;;;6.63;5.95;;;16.50;99.90;;;;;;5073542;28;20526;-79
2022/08/19 02:35:05;;;;;;;6.38;5.88;;;16.40;99.90;;;;;;5079363;28;20037;-79
2022/08/19 02:40:17;;;;;;;7.28;6.65;;;16.30;99.90;;;;;;5077014;28;20083;-79
2022/08/19 02:42:43;;;;;;;6.68;6.15;;;16.20;99.90;;;;;;5080844;28;20472;-78
2022/08/19 02:45:09;;;;;;;5.35;4.85;;;16.30;99.90;;;;;;5073782;28;20036;-79
2022/08/19 02:47:35;;;;;;;6.40;5.80;;;16.20;99.90;;;;;;5079430;28;20036;-79
2022/08/19 02:50:02;;;;;;;6.88;6.18;;;16.10;99.90;;;;;;5062998;28;20032;-80
2022/08/19 02:52:28;;;;;;;6.53;5.55;;;16.00;99.90;;;;;;5077200;28;20066;-80
2022/08/19 02:54:56;;;;;;;5.82;5.32;;;16.00;99.90;;;;;;5074627;28;20070;-79
2022/08/19 02:57:22;;;;;;;6.18;5.57;;;16.10;99.90;;;;;;5078349;28;20040;-79
2022/08/19 02:59:48;;;;;;;7.05;6.45;;;16.20;99.90;;;;;;5076379;28;20035;-79
2022/08/19 03:02:13;;;;;;;5.78;5.18;;;16.20;99.90;;;;;;5085049;28;20162;-79
2022/08/19 03:04:39;;;;;;;6.07;5.35;;;16.10;99.90;;;;;;5067458;28;20503;-79
2022/08/19 03:07:05;;;;;;;5.72;5.22;;;16.00;99.90;;;;;;5059312;28;20033;-79
2022/08/19 03:09:30;;;;;;;6.50;5.90;;;16.00;99.90;;;;;;5066994;28;20044;-79
2022/08/19 03:11:56;;;;;;;5.82;5.22;;;15.90;99.90;;;;;;5076010;28;20765;-79
2022/08/19 03:14:22;;;;;;;5.47;4.97;;;15.90;99.90;;;;;;5060212;28;20044;-79
2022/08/19 03:16:50;;;;;;;6.05;5.50;;;16.00;99.90;;;;;;5067297;28;20088;-78
2022/08/19 03:19:18;;;;;;;5.72;5.22;;;15.90;99.90;;;;;;5078465;28;20024;-78
2022/08/19 03:21:45;;;;;;;6.32;5.72;;;15.90;99.90;;;;;;5074546;28;20388;-79
2022/08/19 03:24:11;;;;;;;6.18;5.57;;;15.90;99.90;;;;;;5060403;28;20033;-79
2022/08/19 03:26:42;;;;;;;5.60;5.10;;;15.90;99.90;;;;;;5077996;28;20083;-79
2022/08/19 03:29:10;;;;;;;6.32;5.82;;;16.10;99.90;;;;;;5079304;28;20025;-78
2022/08/19 03:31:36;;;;;;;4.75;4.32;;;16.00;99.90;;;;;;5064953;28;20032;-79
2022/08/19 03:34:02;;;;;;;5.20;4.70;;;15.90;99.90;;;;;;5069243;28;20085;-79
2022/08/19 03:36:27;;;;;;;4.30;3.90;;;15.80;99.90;;;;;;5081252;28;20028;-78
2022/08/19 03:38:56;;;;;;;6.00;5.50;;;15.80;99.90;;;;;;5081443;28;20020;-79
2022/08/19 03:41:28;;;;;;;5.25;4.85;;;15.80;99.90;;;;;;5086701;28;20105;-78
2022/08/19 03:43:54;;;;;;;6.05;5.45;;;15.80;99.90;;;;;;5078240;28;20032;-79
2022/08/19 03:46:29;;;;;;;5.10;4.70;;;15.70;99.90;;;;;;5083925;28;20043;-79
2022/08/19 03:48:58;;;;;;;5.68;5.18;;;15.70;99.90;;;;;;5077777;28;20549;-78
2022/08/19 03:51:28;;;;;;;6.40;5.80;;;15.70;99.90;;;;;;5080005;28;20025;-78
2022/08/19 03:53:55;;;;;;;5.60;5.10;;;15.70;99.90;;;;;;5065247;28;20032;-78
2022/08/19 03:56:21;;;;;;;5.85;5.30;;;15.60;99.90;;;;;;5065059;28;20034;-79
2022/08/19 03:58:47;;;;;;;6.35;5.85;;;15.60;99.90;;;;;;5077967;28;20115;-78
2022/08/19 04:01:19;;;;;;;6.82;6.20;;;15.70;99.90;;;;;;5086707;28;20040;-79
2022/08/19 04:03:48;;;;;;;6.03;5.53;;;15.60;99.90;;;;;;5080002;28;20056;-79
2022/08/19 04:06:21;;;;;;;6.18;5.65;;;15.70;99.90;;;;;;5069159;28;20476;-79
2022/08/19 04:08:49;;;;;;;5.63;5.07;;;15.80;99.90;;;;;;5069843;28;20032;-78
2022/08/19 04:11:21;;;;;;;6.30;5.57;;;15.60;99.90;;;;;;5080379;28;20094;-79
2022/08/19 04:13:48;;;;;;;6.25;5.65;;;15.60;99.90;;;;;;5077808;28;20033;-79
2022/08/19 04:16:14;;;;;;;5.60;5.13;;;15.50;99.90;;;;;;5088380;28;20078;-79
2022/08/19 04:18:40;;;;;;;6.80;6.20;;;15.60;99.90;;;;;;5068824;28;20032;-79
2022/08/19 04:21:07;;;;;;;6.63;6.03;;;15.50;99.90;;;;;;5079370;28;20090;-79
2022/08/19 04:23:34;;;;;;;6.32;5.72;;;15.50;99.90;;;;;;5071036;28;20031;-78
2022/08/19 04:25:59;;;;;;;6.43;5.93;;;15.50;99.90;;;;;;5069338;28;20033;-79
2022/08/19 04:28:25;;;;;;;6.25;5.65;;;15.50;99.90;;;;;;5080066;28;20020;-79
2022/08/19 04:30:53;;;;;;;6.70;6.10;;;15.50;99.90;;;;;;5079646;28;20025;-78
2022/08/19 04:33:23;;;;;;;6.63;6.05;;;15.50;99.90;;;;;;5081526;28;20044;-78
2022/08/19 04:35:51;;;;;;;;;;;15.50;99.90;;;;;;5077176;28;20537;-79
2022/08/19 04:38:20;;;;;;;5.50;4.72;;;15.40;99.90;;;;;;5086091;28;19993;-78
2022/08/19 04:43:34;;;;;;;4.93;4.50;;;15.40;99.90;;;;;;5080516;28;20468;-78
2022/08/19 04:46:10;;;;;;;17.13;5.57;;;15.50;99.90;;;;;;5075577;28;20206;-78
2022/08/19 04:48:36;;;;;;;5.38;4.88;;;15.50;99.90;;;;;;5081681;28;20028;-77
2022/08/19 04:51:07;;;;;;;5.63;5.07;;;15.60;99.90;;;;;;5079674;28;20111;-78
2022/08/19 04:53:35;;;;;;;6.60;5.10;;;15.60;99.90;;;;;;5074950;28;20020;-78
2022/08/19 04:56:06;;;;;;;5.90;5.40;;;15.60;99.90;;;;;;5069390;28;20028;-78
2022/08/19 04:58:32;;;;;;;6.28;5.78;;;15.60;99.90;;;;;;5084978;28;20028;-77
2022/08/19 05:00:59;;;;;;;6.32;5.75;;;15.70;99.90;;;;;;5080227;28;20044;-77
2022/08/19 05:03:26;;;;;;;6.00;5.50;;;15.60;99.90;;;;;;5079759;28;20016;-78
2022/08/19 05:05:52;;;;;;;7.00;6.30;;;15.80;99.90;;;;;;5086283;28;20032;-78
2022/08/19 05:08:20;;;;;;;5.95;5.35;;;15.80;99.90;;;;;;5076319;28;20036;-78
2022/08/19 05:10:51;;;;;;;6.75;6.05;;;15.80;99.90;;;;;;5074757;28;20433;-77
2022/08/19 05:13:18;;;;;;;5.78;5.20;;;15.80;99.90;;;;;;5080464;28;20028;-78
2022/08/19 05:16:05;;;;;;;5.97;5.38;;;15.70;99.90;;;;;;5074097;28;20016;-78
2022/08/19 05:24:08;;;;;;;6.20;5.60;;;15.80;99.90;;;;;;5078264;28;20345;-77
2022/08/19 05:26:35;;;;;;;5.93;5.43;;;15.80;99.90;;;;;;5080883;28;20042;-78
2022/08/19 05:29:00;;;;;;;6.07;5.47;;;15.80;99.90;;;;;;5059987;28;20078;-78
2022/08/19 05:31:26;;;;;;;7.88;6.25;;;15.80;99.90;;;;;;5078153;28;20032;-78
2022/08/19 05:33:51;;;;;;;10.75;8.50;;;15.80;99.90;;;;;;5080947;28;20153;-78
2022/08/19 05:36:19;;;;;;;8.52;7.57;;;15.80;99.90;;;;;;5085110;28;20431;-78
2022/08/19 05:38:47;;;;;;;8.63;6.78;;;15.80;99.90;;;;;;5068275;28;20035;-78
2022/08/19 05:41:14;;;;;;;6.95;6.35;;;15.90;99.90;;;;;;5079583;28;20056;-76
2022/08/19 05:43:40;;;;;;;8.18;7.38;;;16.00;99.90;;;;;;5085477;28;20213;-77
2022/08/19 05:46:07;;;;;;;8.75;7.32;;;16.00;99.90;;;;;;5084592;28;20197;-77
2022/08/19 05:48:34;;;;;;;11.00;9.93;;;16.00;99.90;;;;;;5086901;28;20032;-77
2022/08/19 05:51:06;;;;;;;10.13;9.13;;;16.10;99.90;;;;;;5073034;28;20538;-77
2022/08/19 05:53:33;;;;;;;7.82;7.03;;;16.20;99.90;;;;;;5074089;28;20086;-77
2022/08/19 05:56:08;;;;;;;6.70;6.10;;;16.20;99.90;;;;;;5074580;28;20028;-77
2022/08/19 05:58:35;;;;;;;6.97;6.30;;;16.30;99.90;;;;;;5083190;28;20063;-77
2022/08/19 06:01:05;;;;;;;7.25;6.53;;;16.30;99.90;;;;;;5080964;28;20330;-77
2022/08/19 06:03:35;;;;;;;;;;;16.50;99.90;;;;;;5083413;28;20054;-78
2022/08/19 06:06:02;;;;;;;6.45;5.90;;;16.60;99.90;;;;;;5062127;28;19912;-78
2022/08/19 06:08:28;;;;;;;5.95;5.40;;;16.70;99.90;;;;;;5074718;28;20047;-78
2022/08/19 06:10:54;;;;;;;8.60;7.47;;;16.80;99.90;;;;;;5066414;28;20025;-78
2022/08/19 06:13:23;;;;;;;8.07;7.38;;;17.00;99.90;;;;;;5079570;28;20036;-78
2022/08/19 06:15:49;;;;;;;8.85;7.95;;;17.10;99.90;;;;;;5075522;28;20028;-78
2022/08/19 06:18:16;;;;;;;10.40;9.40;;;17.30;99.90;;;;;;5076415;28;20033;-78
2022/08/19 06:20:42;;;;;;;10.27;9.07;;;17.50;99.90;;;;;;5080038;28;20107;-78
2022/08/19 06:23:08;;;;;;;11.45;9.43;;;17.40;99.90;;;;;;5075334;28;20028;-78
2022/08/19 06:25:35;;;;;;;13.00;10.20;;;17.70;99.90;;;;;;5065727;28;20033;-78
2022/08/19 06:28:01;;;;;;;11.15;10.02;;;17.80;99.90;;;;;;5078736;28;20498;-79
2022/08/19 06:30:27;;;;;;;12.07;10.88;;;17.80;99.90;;;;;;5085590;28;20039;-78
2022/08/19 06:32:52;;;;;;;13.15;10.63;;;18.10;99.90;;;;;;5074713;28;20128;-78
2022/08/19 06:35:18;;;;;;;11.85;10.55;;;18.30;99.90;;;;;;5068020;28;20119;-77
2022/08/19 06:37:44;;;;;;;18.08;14.02;;;18.40;99.90;;;;;;5071295;28;20073;-78
2022/08/19 06:40:10;;;;;;;11.85;10.65;;;18.60;99.90;;;;;;5062179;28;20097;-79
2022/08/19 06:42:40;;;;;;;23.20;20.73;;;18.70;99.90;;;;;;5063090;28;20047;-78
2022/08/19 06:45:08;;;;;;;19.88;17.77;;;18.70;99.90;;;;;;5065717;28;20021;-79
2022/08/19 06:47:33;;;;;;;24.10;21.25;;;18.80;99.90;;;;;;5059259;28;20044;-79
2022/08/19 06:50:02;;;;;;;30.90;26.80;;;18.90;99.90;;;;;;5076361;28;20127;-78
2022/08/19 06:52:30;;;;;;;34.67;27.15;;;18.90;99.90;;;;;;5076241;28;20107;-79
2022/08/19 06:54:56;;;;;;;31.83;25.80;;;18.90;99.90;;;;;;5078091;28;20487;-79
2022/08/19 06:57:23;;;;;;;27.13;23.92;;;19.00;99.90;;;;;;5076551;28;20028;-79
2022/08/19 06:59:49;;;;;;;30.92;27.25;;;19.30;99.90;;;;;;5077418;28;20025;-79
2022/08/19 07:02:14;;;;;;;31.38;25.88;;;19.40;99.90;;;;;;5078184;28;20090;-79
2022/08/19 07:04:40;;;;;;;34.78;27.65;;;19.50;99.90;;;;;;5069273;28;20046;-80
2022/08/19 07:07:11;;;;;;;32.50;28.58;;;19.70;99.90;;;;;;5077570;28;20128;-79
2022/08/19 07:09:39;;;;;;;35.38;28.48;;;19.70;99.90;;;;;;5080900;28;20165;-79
2022/08/19 07:12:07;;;;;;;35.53;28.77;;;19.80;99.90;;;;;;5077435;28;20447;-79
2022/08/19 07:14:37;;;;;;;35.90;28.75;;;19.90;99.90;;;;;;5082046;28;20400;-78
2022/08/19 07:17:04;;;;;;;;;;;20.00;99.90;;;;;;5088304;28;20127;-78
2022/08/19 07:19:31;;;;;;;40.20;31.52;;;20.10;99.90;;;;;;5067948;28;19915;-79
2022/08/19 07:21:59;;;;;;;41.85;30.77;;;20.00;99.90;;;;;;5081799;28;20040;-79
2022/08/19 07:24:26;;;;;;;43.80;34.75;;;20.10;99.90;;;;;;5081667;28;20376;-79
2022/08/19 07:26:53;;;;;;;34.50;27.55;;;20.10;99.90;;;;;;5078811;28;20042;-78
2022/08/19 07:29:22;;;;;;;39.20;30.15;;;20.50;99.90;;;;;;5087837;28;20027;-79
2022/08/19 07:31:49;;;;;;;39.10;29.30;;;20.60;99.90;;;;;;5079100;28;20032;-79
2022/08/19 07:34:15;;;;;;;42.65;32.67;;;20.80;99.90;;;;;;5064594;28;20288;-79
2022/08/19 07:36:42;;;;;;;44.80;35.60;;;20.80;99.90;;;;;;5062220;28;20114;-80
2022/08/19 07:39:13;;;;;;;43.08;32.70;;;20.70;99.90;;;;;;5070914;28;20048;-78
2022/08/19 07:41:39;;;;;;;47.53;34.95;;;20.90;99.90;;;;;;5075814;28;20534;-80
2022/08/19 07:44:08;;;;;;;50.10;36.13;;;20.90;99.90;;;;;;5078721;28;20457;-79
2022/08/19 07:46:37;;;;;;;56.63;39.00;;;21.00;99.90;;;;;;5071137;28;20442;-79
2022/08/19 07:49:04;;;;;;;59.60;40.70;;;20.80;99.90;;;;;;5046830;28;20084;-81
2022/08/19 07:51:30;;;;;;;55.15;38.70;;;20.60;99.90;;;;;;5086726;28;20293;-80
2022/08/19 07:53:56;;;;;;;61.88;39.92;;;20.60;99.90;;;;;;5068659;28;20016;-80
2022/08/19 07:56:22;;;;;;;59.63;39.90;;;20.30;99.90;;;;;;5086336;28;20036;-79
2022/08/19 07:58:50;;;;;;;57.72;38.28;;;20.30;99.90;;;;;;5080813;28;20024;-80
2022/08/19 08:01:19;;;;;;;63.30;41.13;;;20.60;99.90;;;;;;5083676;28;20026;-79
2022/08/19 08:09:20;;;;;;;54.85;36.15;;;21.60;99.90;;;;;;5075186;28;20031;-80
2022/08/19 08:11:59;;;;;;;66.05;41.20;;;21.70;99.90;;;;;;5078823;28;20029;-80
2022/08/19 08:14:32;;;;;;;62.93;42.97;;;21.80;99.90;;;;;;5076276;28;20051;-80
2022/08/19 08:16:59;;;;;;;62.35;42.83;;;22.00;99.90;;;;;;5070717;28;20389;-81
2022/08/19 08:19:26;;;;;;;60.38;39.95;;;22.10;99.90;;;;;;5079552;28;22549;-80
2022/08/19 08:21:58;;;;;;;60.60;42.40;;;21.50;99.90;;;;;;5076806;28;20139;-80
2022/08/19 08:24:26;;;;;;;59.30;42.30;;;21.60;99.90;;;;;;5075474;28;20032;-81
2022/08/19 08:26:51;;;;;;;66.85;44.78;;;21.20;99.90;;;;;;5059927;28;20036;-80
2022/08/19 08:29:19;;;;;;;68.97;43.95;;;21.30;99.90;;;;;;5078622;28;20033;-79
2022/08/19 08:31:46;;;;;;;63.97;44.80;;;21.20;99.90;;;;;;5076007;28;20037;-80
2022/08/19 08:34:13;;;;;;;57.55;42.05;;;20.90;99.90;;;;;;5073087;28;20028;-81
2022/08/19 08:36:42;;;;;;;60.45;43.58;;;21.20;99.90;;;;;;5057203;28;20042;-80
2022/08/19 08:39:17;;;;;;;50.05;34.97;;;21.20;99.90;;;;;;5072302;28;20469;-79
2022/08/19 08:42:15;;;;;;;37.80;27.45;;;21.90;99.90;;;;;;5071514;28;20072;-79
2022/08/19 08:44:43;;;;;;;38.28;28.20;;;22.40;99.90;;;;;;5077794;28;20024;-78
2022/08/19 08:47:17;;;;;;;37.67;27.75;;;23.00;99.90;;;;;;5074513;28;20127;-78
2022/08/19 08:49:55;;;;;;;50.83;36.58;;;23.20;99.90;;;;;;5064110;28;20031;-79
2022/08/19 08:52:25;;;;;;;46.63;35.00;;;22.90;99.90;;;;;;5066973;28;20312;-79
2022/08/19 08:54:54;;;;;;;37.00;27.42;;;22.70;99.90;;;;;;5086853;28;20374;-80
2022/08/19 08:57:59;;;;;;;26.90;21.80;;;23.20;99.90;;;;;;5071007;28;20036;-79
2022/08/19 09:00:30;;;;;;;23.88;19.08;;;23.70;99.90;;;;;;5022075;28;20041;-79
2022/08/19 09:02:57;;;;;;;23.00;18.75;;;24.20;99.90;;;;;;5041427;28;20037;-80
2022/08/19 09:05:42;;;;;;;29.58;24.20;;;24.30;99.90;;;;;;5019815;28;20033;-81
2022/08/19 09:08:37;;;;;;;25.52;21.05;;;23.70;99.90;;;;;;5021031;28;20060;-78
2022/08/19 09:11:08;;;;;;;23.13;17.52;;;24.20;99.90;;;;;;5025549;28;20469;-80
2022/08/19 09:14:15;;;;;;;21.10;17.92;;;24.50;99.90;;;;;;5025949;28;20036;-79
2022/08/19 09:16:41;;;;;;;20.25;15.90;;;24.00;99.90;;;;;;5022631;28;20195;-80
2022/08/19 09:19:08;;;;;;;16.98;14.68;;;23.50;99.90;;;;;;5038370;28;20760;-79
2022/08/19 09:21:34;;;;;;;14.23;12.73;;;23.60;99.90;;;;;;5025493;28;20461;-79
2022/08/19 09:24:04;;;;;;;9.23;8.30;;;23.80;99.90;;;;;;5023736;28;20108;-79
2022/08/19 09:26:32;;;;;;;10.35;7.70;;;24.60;99.90;;;;;;5008873;28;20568;-80
2022/08/19 09:28:59;;;;;;;14.93;10.35;;;25.10;99.90;;;;;;5041892;28;20117;-81
2022/08/19 09:31:28;;;;;;;11.30;10.07;;;24.60;99.90;;;;;;5041850;28;20049;-80
2022/08/19 09:33:56;;;;;;;6.75;5.15;;;24.50;99.90;;;;;;5051101;28;20040;-81
2022/08/19 09:36:24;;;;;;;9.50;7.97;;;25.30;99.90;;;;;;5074897;28;20036;-81
2022/08/19 09:38:51;;;;;;;12.60;9.30;;;25.10;99.90;;;;;;5060231;28;20808;-80
2022/08/19 09:41:22;;;;;;;14.45;11.85;;;24.80;99.90;;;;;;5075391;28;20062;-81
2022/08/19 09:43:55;;;;;;;16.45;13.15;;;24.70;99.90;;;;;;5073751;28;20030;-81
2022/08/19 09:46:21;;;;;;;13.55;12.13;;;24.30;99.90;;;;;;5072397;28;20455;-79
2022/08/19 09:48:48;;;;;;;10.85;8.27;;;24.60;99.90;;;;;;5078776;28;20476;-80
2022/08/19 09:51:17;;;;;;;7.72;6.32;;;25.30;99.90;;;;;;5071591;28;20506;-81
2022/08/19 09:53:44;;;;;;;5.55;4.82;;;25.50;99.90;;;;;;5071251;28;20047;-81
2022/08/19 09:56:12;;;;;;;10.93;6.72;;;24.80;99.90;;;;;;5071416;28;20032;-82
2022/08/19 09:58:40;;;;;;;7.75;6.90;;;24.80;99.90;;;;;;5069153;28;20027;-80
2022/08/19 10:01:07;;;;;;;5.72;4.45;;;25.00;99.90;;;;;;5061872;28;20036;-81
2022/08/19 10:03:35;;;;;;;4.13;3.40;;;25.40;99.90;;;;;;5073932;28;20036;-81
2022/08/19 10:06:03;;;;;;;6.57;5.25;;;25.60;99.90;;;;;;5069895;28;20024;-80
2022/08/19 10:08:32;;;;;;;6.20;4.93;;;25.40;99.90;;;;;;5072043;28;20120;-79
2022/08/19 10:10:59;;;;;;;8.97;6.23;;;25.50;99.90;;;;;;5081655;28;20136;-82
2022/08/19 10:13:26;;;;;;;9.75;7.40;;;25.40;99.90;;;;;;5072328;28;20427;-80
2022/08/19 10:15:54;;;;;;;12.43;6.82;;;25.00;99.90;;;;;;5070170;28;20025;-80
2022/08/19 10:18:21;;;;;;;18.45;12.88;;;25.10;99.90;;;;;;5072869;28;20107;-81
2022/08/19 10:20:49;;;;;;;15.93;12.07;;;24.70;99.90;;;;;;5071659;28;20033;-82
2022/08/19 10:23:16;;;;;;;19.23;14.80;;;24.80;99.90;;;;;;5072773;28;20064;-80
2022/08/19 10:25:42;;;;;;;32.22;23.38;;;24.40;99.90;;;;;;5056595;28;20020;-81
2022/08/19 10:28:11;;;;;;;36.20;27.17;;;24.20;99.90;;;;;;5056096;28;20048;-81
2022/08/19 10:30:39;;;;;;;32.25;23.30;;;23.80;99.90;;;;;;5059544;28;20451;-82
2022/08/19 10:33:05;;;;;;;26.80;19.52;;;23.80;99.90;;;;;;5063293;28;20056;-79
2022/08/19 10:35:31;;;;;;;29.48;21.90;;;24.60;99.90;;;;;;5071096;28;20024;-78
2022/08/19 10:37:59;;;;;;;31.08;22.15;;;24.30;99.90;;;;;;5057993;28;20017;-80
2022/08/19 10:40:26;;;;;;;28.67;21.63;;;24.20;99.90;;;;;;5078485;28;20056;-81
2022/08/19 10:42:52;;;;;;;31.05;22.60;;;24.20;99.90;;;;;;5072931;28;20025;-79
2022/08/19 10:45:18;;;;;;;31.80;22.77;;;24.00;99.90;;;;;;5071840;28;20115;-80
2022/08/19 10:47:44;;;;;;;26.02;20.35;;;24.00;99.90;;;;;;5073137;28;20514;-80
2022/08/19 10:52:54;;;;;;;24.85;18.33;;;24.40;99.90;;;;;;5072324;28;20067;-80
2022/08/19 10:58:16;;;;;;;22.80;16.95;;;24.60;99.90;;;;;;5070857;28;20489;-80
2022/08/19 11:00:43;;;;;;;21.63;15.15;;;24.70;99.90;;;;;;5055258;28;20032;-80
2022/08/19 11:03:10;;;;;;;21.67;16.35;;;24.90;99.90;;;;;;5068821;28;20050;-81
2022/08/19 11:05:37;;;;;;;22.13;17.73;;;24.20;99.90;;;;;;5077537;28;20105;-81
2022/08/19 11:08:03;;;;;;;20.17;17.60;;;24.00;99.90;;;;;;5074297;28;20051;-81
2022/08/19 11:10:28;;;;;;;17.77;12.73;;;24.10;99.90;;;;;;5071298;28;20473;-79
2022/08/19 11:12:55;;;;;;;25.25;16.88;;;24.50;99.90;;;;;;5078068;28;20042;-82
2022/08/19 11:15:21;;;;;;;21.10;13.40;;;24.60;99.90;;;;;;5072632;28;20035;-81
2022/08/19 11:17:46;;;;;;;20.70;15.18;;;24.90;99.90;;;;;;5063490;28;20021;-79
2022/08/19 11:20:14;;;;;;;23.55;16.20;;;24.50;99.90;;;;;;5055913;28;20106;-79
2022/08/19 11:22:41;;;;;;;21.65;15.40;;;24.20;99.90;;;;;;5074475;28;20336;-82
2022/08/19 11:25:08;;;;;;;15.93;12.13;;;24.50;99.90;;;;;;5071212;28;20031;-79
2022/08/19 11:27:39;;;;;;;20.05;14.68;;;24.70;99.90;;;;;;5070721;28;20501;-80
2022/08/19 11:30:07;;;;;;;21.02;14.90;;;24.50;99.90;;;;;;5072568;28;20082;-81
2022/08/19 11:32:33;;;;;;;12.93;11.05;;;24.30;99.90;;;;;;5071199;28;20032;-81
2022/08/19 11:34:59;;;;;;;15.27;12.18;;;24.80;99.90;;;;;;5060376;28;20115;-81
2022/08/19 11:37:24;;;;;;;13.27;11.27;;;24.20;99.90;;;;;;5072270;28;20107;-80
2022/08/19 11:39:50;;;;;;;17.73;11.05;;;25.00;99.90;;;;;;5071184;28;20064;-81
2022/08/19 11:45:25;;;;;;;14.20;8.88;;;24.50;99.90;;;;;;5017496;28;20030;-80
2022/08/19 11:47:52;;;;;;;10.75;8.10;;;24.90;99.90;;;;;;4979217;28;20116;-79
2022/08/19 11:50:18;;;;;;;14.77;10.23;;;24.90;99.90;;;;;;5014518;28;20485;-81
2022/08/19 11:52:44;;;;;;;13.20;9.80;;;24.50;99.90;;;;;;4999926;28;20030;-79
2022/08/19 11:55:12;;;;;;;12.05;10.43;;;24.60;99.90;;;;;;4998506;28;20026;-79
2022/08/19 11:57:38;;;;;;;13.50;9.20;;;25.00;99.90;;;;;;4999329;28;20053;-81
2022/08/19 12:00:05;;;;;;;12.55;9.35;;;25.30;99.90;;;;;;5000656;28;20028;-81
2022/08/19 12:02:31;;;;;;;9.85;7.63;;;25.00;99.90;;;;;;4987197;28;20690;-80
2022/08/19 12:04:57;;;;;;;9.15;6.40;;;25.20;99.90;;;;;;5000581;28;20026;-78
2022/08/19 12:07:22;;;;;;;10.55;7.65;;;26.10;99.90;;;;;;4984898;28;20132;-79
2022/08/19 12:09:48;;;;;;;14.57;9.93;;;26.10;99.90;;;;;;5020214;28;20647;-79
2022/08/19 12:12:14;;;;;;;14.32;10.13;;;25.60;99.90;;;;;;4986975;28;20036;-80
2022/08/19 12:14:40;;;;;;;15.25;10.43;;;25.60;99.90;;;;;;5018725;28;20033;-80
2022/08/19 12:17:07;;;;;;;13.85;10.15;;;24.90;99.90;;;;;;5071059;28;20123;-80
2022/08/19 12:19:33;;;;;;;11.43;9.02;;;25.10;99.90;;;;;;5077712;28;20039;-81
2022/08/19 12:22:02;;;;;;;15.93;11.38;;;25.20;99.90;;;;;;5074480;28;20025;-79
2022/08/19 12:24:31;;;;;;;15.57;11.87;;;25.10;99.90;;;;;;5072741;28;20035;-81
2022/08/19 12:26:58;;;;;;;12.07;9.18;;;25.20;99.90;;;;;;5077888;28;20045;-81
2022/08/19 12:29:29;;;;;;;14.65;10.90;;;25.70;99.90;;;;;;5074441;28;20392;-83
2022/08/19 12:32:00;;;;;;;12.57;9.90;;;25.80;99.90;;;;;;5066897;28;20436;-81
2022/08/19 12:34:29;;;;;;;15.02;10.07;;;26.00;99.90;;;;;;5054230;28;20020;-81
2022/08/19 12:36:57;;;;;;;11.43;8.82;;;25.90;99.90;;;;;;5078425;28;20029;-80
2022/08/19 12:39:23;;;;;;;14.05;10.93;;;25.60;99.90;;;;;;5065273;28;20553;-80
2022/08/19 12:41:49;;;;;;;15.18;11.45;;;25.40;99.90;;;;;;5059388;28;20602;-79
2022/08/19 12:44:15;;;;;;;16.63;13.50;;;25.50;99.90;;;;;;5073522;28;20103;-79
2022/08/19 12:46:41;;;;;;;15.50;10.98;;;25.20;99.90;;;;;;5078643;28;20036;-81
2022/08/19 12:49:07;;;;;;;13.77;10.27;;;25.30;99.90;;;;;;5054022;28;20726;-80
2022/08/19 12:51:32;;;;;;;11.18;7.90;;;25.80;99.90;;;;;;5079247;28;20089;-78
2022/08/19 12:53:58;;;;;;;13.70;10.85;;;25.50;99.90;;;;;;5076320;28;20036;-79
2022/08/19 12:56:24;;;;;;;9.52;8.45;;;25.50;99.90;;;;;;5078189;28;20084;-79
2022/08/19 12:58:50;;;;;;;11.93;10.60;;;25.90;99.90;;;;;;5059078;28;20433;-79
2022/08/19 13:01:17;;;;;;;16.95;11.98;;;26.10;99.90;;;;;;5076871;28;20024;-80
2022/08/19 13:03:45;;;;;;;16.08;12.95;;;25.80;99.90;;;;;;5071292;28;20033;-79
2022/08/19 13:06:12;;;;;;;17.83;14.02;;;25.70;99.90;;;;;;5071074;28;20028;-80
2022/08/19 13:08:38;;;;;;;13.45;12.07;;;25.80;99.90;;;;;;5074344;28;20040;-79